Time;durP1;ratioP1;P1;durP2;ratioP2;P2;SDS_P1;SDS_P2;PMS_P1;PMS_P2;Temp;Humidity;BMP_temperature;BMP_pressure;BME280_temperature;BME280_humidity;BME280_pressure;Samples;Min_cycle;Max_cycle;Signal;HPM_P1;HPM_P2
2024/02/22 00:30:13;;;;;;;1.60;0.93;;;;;;;12.08;51.20;94008.25;4734886;29;20289;-87
2024/02/22 00:32:54;;;;;;;1.87;0.90;;;;;;;12.13;51.40;94004.97;4982975;28;20315;-86
2024/02/22 00:35:32;;;;;;;1.90;1.10;;;;;;;12.17;51.15;94002.75;5004085;28;20586;-86
2024/02/22 00:38:01;;;;;;;1.00;1.00;;;;;;;12.13;51.92;94024.84;5004542;28;20202;-87
2024/02/22 00:40:44;;;;;;;2.43;1.10;;;;;;;12.14;51.73;94011.72;5000788;28;20214;-86
2024/02/22 00:43:24;;;;;;;1.20;0.90;;;;;;;12.20;51.91;94016.00;5013149;28;20223;-86
2024/02/22 00:46:07;;;;;;;1.03;1.00;;;;;;;12.20;52.01;94016.00;5012687;28;20230;-86
2024/02/22 00:48:40;;;;;;;2.50;1.03;;;;;;;12.18;52.23;94041.22;5014155;28;20222;-86
2024/02/22 00:54:26;;;;;;;;;;;;;;;;;;;;;
2024/02/22 00:57:35;;;;;;;1.47;1.20;;;;;;;11.95;54.03;94079.88;5009735;28;20203;-86
2024/02/22 01:00:22;;;;;;;1.77;1.00;;;;;;;11.85;54.59;94111.38;4963915;28;20210;-87
2024/02/22 01:03:11;;;;;;;1.10;1.00;;;;;;;11.80;55.49;94142.19;4993003;28;20239;-86
2024/02/22 01:05:48;;;;;;;2.30;1.00;;;;;;;11.83;55.34;94136.59;5005354;28;20230;-84
2024/02/22 01:08:27;;;;;;;0.93;0.87;;;;;;;11.85;55.66;94150.06;5009451;28;20285;-84
2024/02/22 01:11:08;;;;;;;0.87;0.83;;;;;;;11.90;56.11;94177.78;5002282;28;20206;-84
2024/02/22 01:13:41;;;;;;;1.73;0.90;;;;;;;11.95;56.34;94170.16;5018046;28;20285;-84
2024/02/22 01:16:59;;;;;;;0.70;0.70;;;;;;;11.94;57.24;94230.47;4996087;28;20675;-84
2024/02/22 01:22:35;;;;;;;0.80;0.80;;;;;;;11.85;58.61;94288.53;5001179;28;20231;-84
2024/02/22 01:25:43;;;;;;;1.13;0.90;;;;;;;11.82;58.76;94287.16;5000955;28;20211;-85
2024/02/22 01:28:49;;;;;;;0.80;0.80;;;;;;;11.84;59.20;94281.78;5000508;28;20628;-84
2024/02/22 01:34:31;;;;;;;1.50;0.63;;;;;;;11.84;59.97;94321.25;4995772;28;20227;-85
2024/02/22 01:40:23;;;;;;;0.60;0.60;;;;;;;11.75;61.25;94364.56;5009221;28;20278;-85
2024/02/22 01:45:55;;;;;;;0.50;0.50;;;;;;;11.76;62.71;94416.94;4969383;28;20199;-85
2024/02/22 01:48:57;;;;;;;1.00;0.60;;;;;;;11.67;63.17;94447.34;5018718;28;20272;-85
2024/02/22 01:51:49;;;;;;;0.63;0.60;;;;;;;11.72;64.34;94457.03;4992062;28;20211;-85
2024/02/22 01:54:34;;;;;;;0.60;0.60;;;;;;;11.65;65.08;94477.69;4996387;28;20265;-84
2024/02/22 01:57:20;;;;;;;3.40;0.70;;;;;;;11.66;64.58;94456.09;5009913;28;20203;-85
2024/02/22 02:00:03;;;;;;;0.67;0.67;;;;;;;11.71;65.71;94476.88;4992997;28;20261;-85
2024/02/22 02:02:52;;;;;;;0.70;0.70;;;;;;;11.61;66.37;94481.69;4983410;28;20219;-84
2024/02/22 02:05:58;;;;;;;0.57;0.50;;;;;;;11.56;66.17;94476.38;4992131;28;20218;-85
2024/02/22 02:08:49;;;;;;;0.40;0.40;;;;;;;11.60;67.38;94503.31;4992969;28;20215;-85
2024/02/22 02:12:00;;;;;;;0.43;0.43;;;;;;;11.53;67.80;94519.84;5003228;28;20206;-85
2024/02/22 02:18:12;;;;;;;0.33;0.33;;;;;;;11.50;69.19;94546.03;4985459;28;20187;-85
2024/02/22 02:21:03;;;;;;;0.70;0.53;;;;;;;11.50;69.51;94536.50;4995775;28;20205;-85
2024/02/22 02:27:19;;;;;;;0.40;0.40;;;;;;;11.51;70.13;94542.44;4997164;28;20234;-85
2024/02/22 02:29:51;;;;;;;0.57;0.50;;;;;;;11.50;70.02;94527.97;4993203;28;20246;-85
2024/02/22 02:32:29;;;;;;;0.50;0.50;;;;;;;11.58;69.74;94519.97;4994175;28;20237;-84
2024/02/22 02:35:24;;;;;;;0.63;0.63;;;;;;;11.58;69.79;94523.34;5012404;28;20195;-84
2024/02/22 02:38:11;;;;;;;0.50;0.50;;;;;;;11.66;69.77;94510.22;5005490;28;20606;-84
2024/02/22 02:43:37;;;;;;;0.40;0.40;;;;;;;11.68;69.63;94510.00;4999181;28;20237;-84
2024/02/22 02:46:09;;;;;;;0.87;0.60;;;;;;;11.73;69.17;94494.72;4997368;28;20195;-84
2024/02/22 02:51:47;;;;;;;;;;;;;;;;;;;;;
2024/02/22 02:54:13;;;;;;;1.03;0.67;;;;;;;11.71;69.76;94476.88;4992342;28;20192;-84
2024/02/22 02:56:45;;;;;;;0.40;0.40;;;;;;;11.72;69.97;94468.13;4992622;28;20279;-85
2024/02/22 02:59:16;;;;;;;0.83;0.50;;;;;;;11.72;69.34;94439.00;4997278;28;20222;-84
2024/02/22 03:02:18;;;;;;;0.50;0.50;;;;;;;11.71;69.52;94440.78;5008238;28;20207;-85
2024/02/22 03:05:11;;;;;;;0.73;0.60;;;;;;;11.67;68.88;94405.31;5007489;28;20219;-85
2024/02/22 03:07:42;;;;;;;0.40;0.40;;;;;;;11.65;68.92;94408.09;5008216;28;20284;-85
2024/02/22 03:10:09;;;;;;;0.47;0.47;;;;;;;11.67;69.19;94421.56;5011643;28;20191;-84
2024/02/22 03:12:44;;;;;;;0.63;0.60;;;;;;;11.65;69.34;94404.72;5011124;28;20765;-85
2024/02/22 03:15:27;;;;;;;0.60;0.60;;;;;;;11.63;69.28;94406.72;5004964;28;20260;-85
2024/02/22 03:17:58;;;;;;;0.60;0.60;;;;;;;11.55;69.45;94402.63;4994344;28;20661;-84
2024/02/22 03:20:46;;;;;;;0.50;0.50;;;;;;;11.60;68.63;94379.56;4992210;28;20203;-85
2024/02/22 03:23:25;;;;;;;0.60;0.60;;;;;;;11.58;68.54;94353.22;4990762;28;20227;-84
2024/02/22 03:26:17;;;;;;;0.73;0.60;;;;;;;11.56;68.47;94320.91;4991009;28;20207;-84
2024/02/22 03:28:52;;;;;;;0.57;0.57;;;;;;;11.50;67.68;94303.75;5007382;28;20218;-85
2024/02/22 03:31:35;;;;;;;0.73;0.63;;;;;;;11.49;68.13;94315.06;5003430;28;20205;-85
2024/02/22 03:34:20;;;;;;;1.30;0.70;;;;;;;11.51;67.67;94308.69;4995009;28;20306;-85
2024/02/22 03:37:11;;;;;;;0.63;0.50;;;;;;;11.46;68.25;94303.38;4982149;28;20235;-84
2024/02/22 03:39:49;;;;;;;0.53;0.43;;;;;;;11.31;67.76;94292.63;5004719;28;20253;-85
2024/02/22 03:42:30;;;;;;;0.50;0.50;;;;;;;11.24;68.34;94297.81;5002236;28;20672;-85
2024/02/22 03:45:14;;;;;;;3.17;0.83;;;;;;;11.26;66.63;94234.00;5011474;28;20199;-85
2024/02/22 03:48:09;;;;;;;0.73;0.70;;;;;;;11.32;66.12;94206.59;5000953;28;20214;-85
2024/02/22 03:50:52;;;;;;;0.63;0.63;;;;;;;11.23;65.37;94164.06;4990892;28;20196;-84
2024/02/22 03:53:45;;;;;;;0.77;0.70;;;;;;;11.22;64.75;94132.38;4990520;28;20230;-84
2024/02/22 03:56:26;;;;;;;0.70;0.70;;;;;;;11.26;64.13;94112.91;4991378;28;20754;-85
2024/02/22 03:59:20;;;;;;;0.80;0.80;;;;;;;11.26;63.20;94055.44;4991610;28;20199;-84
2024/02/22 04:02:28;;;;;;;;;;;;;;;;;;;;;
2024/02/22 04:05:34;;;;;;;1.30;0.90;;;;;;;11.25;61.22;93935.38;5002528;28;20411;-85
2024/02/22 04:08:46;;;;;;;1.00;0.90;;;;;;;11.28;60.54;93909.97;4994187;28;20215;-84
2024/02/22 04:15:04;;;;;;;;;;;;;;;;;;;;;
2024/02/22 04:17:48;;;;;;;0.87;0.77;;;;;;;11.12;59.71;93853.94;4995314;28;20203;-83
2024/02/22 04:20:27;;;;;;;1.73;0.80;;;;;;;11.12;59.72;93856.53;5001937;28;20294;-85
2024/02/22 04:23:13;;;;;;;0.80;0.80;;;;;;;11.11;59.20;93831.00;4994472;28;20227;-85
2024/02/22 04:25:42;;;;;;;2.80;1.00;;;;;;;11.14;59.59;93840.84;5004986;28;20210;-84
2024/02/22 04:28:18;;;;;;;0.97;0.97;;;;;;;11.15;59.20;93845.00;5008535;28;20292;-84
2024/02/22 04:30:48;;;;;;;0.90;0.80;;;;;;;11.21;59.46;93850.03;4994711;28;20227;-84
2024/02/22 04:33:23;;;;;;;0.83;0.77;;;;;;;11.20;59.25;93842.50;4993299;28;20227;-85
2024/02/22 04:35:58;;;;;;;0.80;0.80;;;;;;;11.24;58.98;93820.47;4999599;28;20212;-84
2024/02/22 04:38:28;;;;;;;1.07;0.97;;;;;;;11.22;58.93;93812.16;5009505;28;20216;-85
2024/02/22 04:41:00;;;;;;;0.90;0.90;;;;;;;11.19;59.16;93803.09;5013169;28;20643;-85
2024/02/22 04:43:35;;;;;;;1.40;0.80;;;;;;;11.16;58.74;93800.19;4995206;28;20230;-84
2024/02/22 04:46:15;;;;;;;1.40;1.00;;;;;;;11.23;58.63;93798.28;4993506;28;20301;-84
2024/02/22 04:48:49;;;;;;;1.37;0.97;;;;;;;11.29;58.89;93802.56;5014375;28;20246;-85
2024/02/22 04:51:32;;;;;;;1.03;1.00;;;;;;;11.30;59.11;93815.22;5011372;28;20202;-85
2024/02/22 04:54:10;;;;;;;0.90;0.90;;;;;;;11.28;59.04;93817.22;5006479;28;20233;-84
2024/02/22 04:56:51;;;;;;;1.63;1.27;;;;;;;11.25;59.26;93840.06;5017713;28;20195;-84
2024/02/22 04:59:30;;;;;;;1.80;1.10;;;;;;;11.17;59.71;93846.31;5018824;28;20747;-84
2024/02/22 05:02:04;;;;;;;1.00;0.90;;;;;;;11.14;59.93;93846.00;5011235;28;20191;-84
2024/02/22 05:05:08;;;;;;;1.20;0.90;;;;;;;11.20;59.68;93845.88;5003800;28;20200;-84
2024/02/22 05:07:58;;;;;;;1.43;0.90;;;;;;;11.25;59.43;93829.75;5001712;28;20209;-84
2024/02/22 05:13:44;;;;;;;1.37;0.80;;;;;;;11.29;59.24;93815.44;5003624;28;20222;-84
2024/02/22 05:16:15;;;;;;;1.30;1.00;;;;;;;11.27;59.20;93817.44;4995952;28;20210;-83
2024/02/22 05:18:48;;;;;;;1.90;1.00;;;;;;;11.20;59.34;93822.69;4994532;28;20204;-85
2024/02/22 05:21:25;;;;;;;1.60;1.03;;;;;;;11.25;59.60;93827.97;4999084;28;20203;-84
2024/02/22 05:23:58;;;;;;;2.17;1.23;;;;;;;11.22;59.10;93818.09;5010869;28;20758;-84
2024/02/22 05:26:27;;;;;;;0.90;0.90;;;;;;;11.19;59.32;93815.19;5001579;28;20242;-85
2024/02/22 05:29:00;;;;;;;0.80;0.80;;;;;;;11.16;58.99;93798.38;4993212;28;20219;-85
2024/02/22 05:31:39;;;;;;;1.87;1.30;;;;;;;11.18;59.33;93818.78;4994930;28;20203;-84
2024/02/22 05:34:45;;;;;;;2.30;1.10;;;;;;;11.24;59.42;93826.41;4992728;28;20219;-85
2024/02/22 05:46:03;;;;;;;0.80;0.80;;;;;;;11.13;59.69;93805.78;4973584;28;20210;-85
2024/02/22 05:48:31;;;;;;;1.33;0.93;;;;;;;11.14;61.44;93895.72;5003298;28;20267;-85
2024/02/22 05:50:58;;;;;;;1.17;0.90;;;;;;;11.15;60.51;93843.22;4999350;28;20211;-84
2024/02/22 05:53:26;;;;;;;2.03;1.20;;;;;;;11.07;60.28;93835.78;5014074;28;20230;-84
2024/02/22 05:55:54;;;;;;;1.77;1.00;;;;;;;11.03;61.16;93881.00;5002586;28;20661;-86
2024/02/22 05:58:21;;;;;;;0.83;0.83;;;;;;;11.00;60.51;93869.34;5007882;28;20207;-85
2024/02/22 06:00:48;;;;;;;1.57;1.10;;;;;;;11.02;60.25;93844.19;5009783;28;20198;-85
2024/02/22 06:03:14;;;;;;;1.57;1.20;;;;;;;11.06;60.39;93841.94;5008936;28;20215;-85
2024/02/22 06:05:44;;;;;;;1.27;1.10;;;;;;;11.10;60.26;93861.09;5006312;28;20203;-85
2024/02/22 06:08:11;;;;;;;1.30;1.20;;;;;;;11.12;60.46;93868.63;5009302;28;20269;-85
2024/02/22 06:10:38;;;;;;;1.30;1.20;;;;;;;11.13;60.31;93845.22;5009818;28;20219;-85
2024/02/22 06:13:04;;;;;;;1.50;1.30;;;;;;;11.14;59.65;93813.31;5005025;28;20222;-85
2024/02/22 06:15:31;;;;;;;1.20;1.10;;;;;;;11.19;59.88;93812.59;5013944;28;20266;-85
2024/02/22 06:17:57;;;;;;;1.63;1.43;;;;;;;11.28;59.87;93817.22;5015481;28;20754;-84
2024/02/22 06:20:24;;;;;;;1.40;1.30;;;;;;;11.37;60.22;93831.31;5010747;28;20679;-84
2024/02/22 06:22:52;;;;;;;2.70;1.50;;;;;;;11.43;60.13;93845.91;5011249;28;20223;-85
2024/02/22 06:25:19;;;;;;;1.70;1.60;;;;;;;11.49;60.71;93874.38;5012875;28;20209;-84
2024/02/22 06:27:45;;;;;;;3.00;1.60;;;;;;;11.50;60.42;93868.97;5009191;28;20763;-85
2024/02/22 06:30:14;;;;;;;2.47;1.70;;;;;;;11.43;60.01;93832.22;5008251;28;20231;-84
2024/02/22 06:32:41;;;;;;;1.50;1.40;;;;;;;11.45;60.26;93822.47;5010010;28;20758;-87
2024/02/22 06:35:08;;;;;;;1.60;1.40;;;;;;;11.43;60.67;93840.75;5008501;28;20576;-87
2024/02/22 06:37:35;;;;;;;1.43;1.33;;;;;;;11.44;60.97;93849.25;5009431;28;20565;-84
2024/02/22 06:40:05;;;;;;;1.70;1.60;;;;;;;11.39;61.13;93854.28;5008756;28;20289;-84
2024/02/22 06:42:31;;;;;;;2.17;1.93;;;;;;;11.40;61.19;93861.78;5009686;28;20385;-84
2024/02/22 06:44:58;;;;;;;2.00;1.63;;;;;;;11.34;61.59;93875.59;5008063;28;20206;-85
2024/02/22 06:47:25;;;;;;;2.03;1.57;;;;;;;11.34;61.56;93890.25;5011522;28;20198;-85
2024/02/22 06:49:52;;;;;;;6.33;1.60;;;;;;;11.32;62.04;93905.94;5011123;28;20227;-84
2024/02/22 06:52:18;;;;;;;2.53;1.80;;;;;;;11.30;62.08;93904.59;5005544;28;20267;-84
2024/02/22 06:54:47;;;;;;;2.17;1.80;;;;;;;11.30;61.69;93902.81;5010786;28;20264;-85
2024/02/22 06:57:15;;;;;;;3.10;1.90;;;;;;;11.35;62.38;93930.47;5012551;28;20788;-85
2024/02/22 06:59:41;;;;;;;3.43;2.03;;;;;;;11.34;62.14;93921.97;5009539;28;20265;-85
2024/02/22 07:02:07;;;;;;;2.93;2.10;;;;;;;11.39;62.91;93952.97;5006345;28;20923;-84
2024/02/22 07:04:34;;;;;;;2.40;1.70;;;;;;;11.42;63.32;93973.16;5011443;28;20206;-85
2024/02/22 07:07:00;;;;;;;2.30;1.90;;;;;;;11.45;63.49;93974.53;5012179;28;20619;-85
2024/02/22 07:09:27;;;;;;;1.97;1.77;;;;;;;11.43;64.22;94000.50;5012949;28;20269;-84
2024/02/22 07:11:57;;;;;;;2.17;1.63;;;;;;;11.38;64.57;94022.78;5012227;28;20245;-85
2024/02/22 07:14:25;;;;;;;2.60;1.60;;;;;;;11.31;64.68;94024.66;5010224;28;20688;-85
2024/02/22 07:16:52;;;;;;;2.63;1.80;;;;;;;11.36;64.53;94015.25;5004595;28;20207;-84
2024/02/22 07:19:18;;;;;;;5.43;2.03;;;;;;;11.36;65.68;94047.97;4998875;28;20211;-84
2024/02/22 07:21:45;;;;;;;2.80;2.10;;;;;;;11.38;65.41;94045.97;4991962;28;20211;-85
2024/02/22 07:24:11;;;;;;;3.03;2.03;;;;;;;11.29;64.81;94008.66;4991399;28;20223;-85
2024/02/22 07:26:38;;;;;;;2.37;2.10;;;;;;;11.30;65.03;94013.59;4991936;28;20216;-85
2024/02/22 07:29:05;;;;;;;3.10;2.20;;;;;;;11.27;65.98;94049.28;4992648;28;20353;-85
2024/02/22 07:31:32;;;;;;;2.57;2.20;;;;;;;11.30;66.04;94041.91;4992232;28;20204;-84
2024/02/22 07:33:59;;;;;;;2.77;2.33;;;;;;;11.25;67.02;94070.13;5002328;28;20921;-85
2024/02/22 07:36:28;;;;;;;2.40;2.00;;;;;;;11.24;66.84;94078.06;4989955;28;20253;-84
2024/02/22 07:38:55;;;;;;;3.07;2.23;;;;;;;11.20;67.33;94097.53;4992736;28;20199;-85
2024/02/22 07:41:21;;;;;;;3.37;2.17;;;;;;;11.23;67.29;94099.66;4991190;28;20254;-84
2024/02/22 07:43:49;;;;;;;2.20;2.00;;;;;;;11.30;67.75;94115.84;4991554;28;20231;-83
2024/02/22 07:46:17;;;;;;;2.60;2.40;;;;;;;11.33;68.26;94138.63;4991044;28;20286;-85
2024/02/22 07:48:45;;;;;;;3.33;2.33;;;;;;;11.33;68.16;94141.97;4998952;28;20198;-84
2024/02/22 07:51:12;;;;;;;4.13;2.50;;;;;;;11.32;69.06;94163.59;4987565;28;20806;-85
2024/02/22 07:53:39;;;;;;;2.63;2.43;;;;;;;11.32;69.52;94173.91;4990909;28;20290;-85
2024/02/22 07:56:07;;;;;;;2.90;2.20;;;;;;;11.29;69.02;94150.34;4990948;28;20238;-82
2024/02/22 07:58:47;;;;;;;3.20;2.27;;;;;;;11.34;69.95;94199.44;4993945;28;20208;-85
2024/02/22 08:01:14;;;;;;;2.53;2.30;;;;;;;11.34;69.83;94184.00;4995255;28;20392;-84
2024/02/22 08:03:41;;;;;;;3.33;2.10;;;;;;;11.31;69.27;94164.59;4991750;28;20229;-85
2024/02/22 08:06:09;;;;;;;2.37;2.17;;;;;;;11.29;70.35;94178.69;4997808;28;20214;-85
2024/02/22 08:08:36;;;;;;;3.63;2.30;;;;;;;11.32;70.45;94175.69;5011077;28;20293;-84
2024/02/22 08:11:03;;;;;;;3.97;2.17;;;;;;;11.28;70.54;94175.31;5011839;28;20584;-84
2024/02/22 08:13:32;;;;;;;3.07;2.30;;;;;;;11.28;71.42;94198.50;5013550;28;20219;-84
2024/02/22 08:16:03;;;;;;;4.63;2.20;;;;;;;11.27;72.32;94238.16;5011127;28;20207;-85
2024/02/22 08:18:29;;;;;;;3.47;3.17;;;;;;;11.26;73.21;94241.72;5010493;28;20202;-85
2024/02/22 08:20:56;;;;;;;3.20;2.80;;;;;;;11.22;73.57;94235.41;5007210;28;20760;-85
2024/02/22 08:23:24;;;;;;;5.07;2.90;;;;;;;11.19;74.11;94247.94;4999605;28;20623;-85
2024/02/22 08:25:51;;;;;;;3.37;2.57;;;;;;;11.10;74.30;94254.38;5011214;28;20293;-84
2024/02/22 08:28:20;;;;;;;4.07;2.80;;;;;;;11.14;75.02;94278.72;5011760;28;20198;-85
2024/02/22 08:30:47;;;;;;;6.17;2.53;;;;;;;11.09;76.44;94297.38;5011633;28;20253;-85
2024/02/22 08:33:13;;;;;;;4.77;2.60;;;;;;;11.11;76.07;94287.66;5011916;28;20782;-84
2024/02/22 08:35:40;;;;;;;3.00;2.70;;;;;;;11.06;75.64;94274.59;5012469;28;20226;-84
2024/02/22 08:38:07;;;;;;;3.90;2.50;;;;;;;10.93;77.26;94311.56;5004444;28;20211;-84
2024/02/22 08:40:34;;;;;;;3.97;2.20;;;;;;;10.96;76.81;94313.72;5008694;28;20210;-85
2024/02/22 08:43:03;;;;;;;2.50;2.30;;;;;;;10.92;77.39;94314.34;5012728;28;20282;-84
2024/02/22 08:45:31;;;;;;;4.13;2.23;;;;;;;10.90;75.93;94270.78;4993675;28;20235;-84
2024/02/22 08:48:03;;;;;;;3.20;2.30;;;;;;;10.84;77.42;94302.50;5003154;28;20202;-84
2024/02/22 08:53:12;;;;;;;2.87;2.00;;;;;;;10.79;77.67;94307.47;5020769;28;20234;-84
2024/02/22 08:56:52;;;;;;;3.47;2.23;;;;;;;10.70;79.59;94349.94;5003122;28;20222;-84
2024/02/22 08:59:43;;;;;;;4.60;2.30;;;;;;;10.71;79.80;94339.44;4983930;28;20266;-84
2024/02/22 09:05:43;;;;;;;2.47;2.00;;;;;;;10.66;80.25;94328.19;4953678;29;20212;-84
2024/02/22 09:11:45;;;;;;;3.23;2.40;;;;;;;10.70;80.84;94339.63;4945448;28;20844;-83
2024/02/22 09:14:30;;;;;;;;;;;;;;;;;;;;;
2024/02/22 09:17:50;;;;;;;3.33;2.53;;;;;;;10.79;81.23;94342.75;4954652;29;20707;-84
2024/02/22 09:20:36;;;;;;;3.07;2.70;;;;;;;10.80;80.80;94319.38;4964418;28;20203;-84
2024/02/22 09:23:31;;;;;;;3.07;2.63;;;;;;;10.95;81.67;94344.84;4994487;28;20223;-85
2024/02/22 09:26:30;;;;;;;2.63;2.43;;;;;;;10.89;81.51;94325.84;4941028;29;20267;-84
2024/02/22 09:29:37;;;;;;;4.03;3.00;;;;;;;10.86;82.09;94325.47;4948187;29;20212;-84
2024/02/22 09:39:43;;;;;;;3.87;3.10;;;;;;;10.85;81.25;94291.22;4875289;29;20278;-83
2024/02/22 09:42:41;;;;;;;3.13;2.83;;;;;;;10.80;82.29;94323.72;4949243;28;20244;-83
2024/02/22 09:45:33;;;;;;;2.97;2.67;;;;;;;10.78;82.51;94323.94;5013281;28;20656;-85
2024/02/22 09:48:03;;;;;;;4.10;3.03;;;;;;;10.74;82.92;94335.66;5012611;28;20206;-84
2024/02/22 09:50:44;;;;;;;3.93;2.67;;;;;;;10.70;84.42;94363.59;5047124;28;20218;-84
2024/02/22 09:53:33;;;;;;;4.13;3.17;;;;;;;10.69;85.92;94384.41;5036967;28;21066;-84
2024/02/22 10:28:39;;;;;;;3.50;2.83;;;;;;;10.75;88.68;94377.63;4919039;29;20259;-84
2024/02/22 10:45:40;;;;;;;;;;;;;;;;;;;;;
2024/02/22 10:52:32;;;;;;;3.30;3.00;;;;;;;10.98;91.10;94378.66;4830962;29;20245;-84
2024/02/22 10:58:57;;;;;;;4.63;2.97;;;;;;;10.92;91.24;94365.84;4858590;29;20276;-83
2024/02/22 11:01:54;;;;;;;;;;;;;;;;;;;;;
2024/02/22 11:08:48;;;;;;;;;;;;;;;;;;;;;
2024/02/22 11:15:23;;;;;;;3.70;3.30;;;;;;;11.40;90.23;94293.91;4901761;28;20210;-83
2024/02/22 11:21:41;;;;;;;3.30;3.00;;;;;;;11.42;87.77;94230.06;5003161;28;20242;-84
2024/02/22 11:24:10;;;;;;;3.97;2.70;;;;;;;11.45;85.66;94177.31;4998270;28;20243;-83
2024/02/22 11:26:50;;;;;;;2.83;2.60;;;;;;;11.35;86.73;94186.31;4996551;28;20214;-84
2024/02/22 11:29:26;;;;;;;2.93;2.63;;;;;;;11.42;87.05;94188.84;4997271;28;20207;-83
2024/02/22 11:31:54;;;;;;;2.93;2.60;;;;;;;11.55;85.05;94147.44;4994832;28;20261;-84
2024/02/22 11:34:21;;;;;;;3.00;2.70;;;;;;;11.68;85.40;94152.44;4997143;28;20698;-84
2024/02/22 11:36:48;;;;;;;3.00;2.70;;;;;;;11.66;83.80;94094.38;5002877;28;20665;-83
2024/02/22 11:39:18;;;;;;;3.87;2.70;;;;;;;11.55;82.36;94057.22;4996352;28;20204;-84
2024/02/22 11:41:48;;;;;;;3.03;2.70;;;;;;;11.66;83.21;94069.38;4998612;28;20207;-84
2024/02/22 11:44:16;;;;;;;2.47;2.27;;;;;;;11.64;81.95;94027.56;4998167;28;20227;-84
2024/02/22 11:46:46;;;;;;;2.80;2.60;;;;;;;11.67;82.02;94031.50;4997250;28;20199;-86
2024/02/22 11:49:14;;;;;;;3.13;2.70;;;;;;;11.70;83.18;94043.94;5023871;28;20225;-84
2024/02/22 11:51:43;;;;;;;2.47;2.27;;;;;;;11.82;82.60;94037.03;5011819;28;20314;-84
2024/02/22 11:54:10;;;;;;;2.77;2.53;;;;;;;11.91;82.10;94016.88;5012682;28;20329;-84
2024/02/22 11:56:37;;;;;;;4.37;2.73;;;;;;;11.98;80.54;93971.13;5016248;28;20195;-86
2024/02/22 11:59:03;;;;;;;3.10;2.80;;;;;;;12.04;82.38;94014.88;5016208;28;20207;-84
2024/02/22 12:01:31;;;;;;;3.20;2.90;;;;;;;12.10;81.55;93992.56;5013836;28;20206;-83
2024/02/22 12:03:58;;;;;;;2.70;2.30;;;;;;;12.18;82.61;94015.41;5011834;28;20273;-83
2024/02/22 12:06:26;;;;;;;4.43;2.80;;;;;;;12.27;82.15;94002.97;5010381;28;20202;-83
2024/02/22 12:08:54;;;;;;;5.97;2.50;;;;;;;12.39;82.39;93998.59;5002220;28;20645;-84
2024/02/22 12:11:23;;;;;;;4.80;2.43;;;;;;;12.46;81.46;93973.44;5012031;28;20867;-84
2024/02/22 12:13:56;;;;;;;2.30;2.10;;;;;;;12.33;78.49;93888.53;5012490;28;20253;-83
2024/02/22 12:16:23;;;;;;;2.80;2.60;;;;;;;12.35;78.68;93887.28;5013333;28;20207;-84
2024/02/22 12:18:51;;;;;;;2.60;2.40;;;;;;;12.28;77.83;93858.25;5012351;28;20214;-83
2024/02/22 12:21:22;;;;;;;3.97;3.63;;;;;;;12.29;78.34;93870.16;5014952;28;20206;-84
2024/02/22 12:23:50;;;;;;;4.33;3.47;;;;;;;12.35;77.92;93858.13;5008619;28;20242;-84
2024/02/22 12:26:18;;;;;;;2.63;2.30;;;;;;;12.46;77.76;93852.13;5010038;28;20318;-83
2024/02/22 12:28:49;;;;;;;2.70;2.30;;;;;;;12.53;77.40;93839.88;5012097;28;20207;-85
2024/02/22 12:31:17;;;;;;;2.53;2.30;;;;;;;12.64;76.86;93812.44;5006222;28;20230;-84
2024/02/22 12:33:43;;;;;;;2.13;1.97;;;;;;;12.72;76.78;93794.75;5012103;28;20236;-84
2024/02/22 12:36:10;;;;;;;2.23;1.93;;;;;;;12.82;76.66;93798.53;5012581;28;20211;-84
2024/02/22 12:38:36;;;;;;;3.53;2.13;;;;;;;12.84;76.08;93763.72;5014754;28;20211;-85
2024/02/22 12:41:05;;;;;;;4.37;2.07;;;;;;;12.79;75.18;93738.59;5013418;28;20199;-83
2024/02/22 12:43:31;;;;;;;2.27;2.00;;;;;;;12.82;74.83;93711.50;5028625;28;20620;-84
2024/02/22 12:45:57;;;;;;;2.33;2.13;;;;;;;12.85;75.82;93733.50;5019443;28;20237;-83
2024/02/22 12:48:24;;;;;;;2.53;2.20;;;;;;;12.91;76.34;93746.25;5026929;28;20194;-83
2024/02/22 12:50:50;;;;;;;2.20;2.00;;;;;;;12.94;75.95;93735.44;5040116;28;20244;-84
2024/02/22 12:53:17;;;;;;;2.33;2.13;;;;;;;13.01;76.08;93735.28;5014262;28;20284;-83
2024/02/22 12:55:44;;;;;;;2.80;2.20;;;;;;;13.00;76.68;93744.06;5013803;28;20199;-84
2024/02/22 12:58:12;;;;;;;2.47;2.00;;;;;;;13.05;76.24;93736.38;5007737;28;20203;-84
2024/02/22 13:00:39;;;;;;;2.63;2.40;;;;;;;13.07;75.73;93718.84;5001302;28;20203;-84
2024/02/22 13:03:07;;;;;;;2.27;2.07;;;;;;;13.04;76.01;93714.16;4999250;28;20293;-84
2024/02/22 13:05:33;;;;;;;3.87;2.57;;;;;;;13.06;76.26;93717.28;5016904;28;20206;-84
2024/02/22 13:08:00;;;;;;;2.77;2.13;;;;;;;13.09;77.04;93732.28;5019661;28;20257;-83
2024/02/22 13:10:27;;;;;;;2.20;2.03;;;;;;;13.13;76.80;93723.06;5010082;28;20665;-84
2024/02/22 13:12:53;;;;;;;2.87;2.03;;;;;;;13.12;77.18;93717.09;5003954;28;20223;-84
2024/02/22 13:15:21;;;;;;;3.57;2.10;;;;;;;13.13;76.86;93707.56;5017151;28;20275;-84
2024/02/22 13:17:48;;;;;;;3.53;2.37;;;;;;;13.14;77.43;93712.47;5018555;28;20222;-83
2024/02/22 13:20:14;;;;;;;3.20;2.33;;;;;;;13.18;76.89;93688.78;5017387;28;20268;-84
2024/02/22 13:22:41;;;;;;;2.47;2.00;;;;;;;13.19;76.91;93667.88;5017890;28;20293;-83
2024/02/22 13:25:08;;;;;;;2.50;2.30;;;;;;;13.21;76.53;93662.47;5017707;28;20705;-84
2024/02/22 13:27:35;;;;;;;2.53;1.63;;;;;;;13.18;75.85;93632.72;5014537;28;20195;-83
2024/02/22 13:30:02;;;;;;;2.93;1.87;;;;;;;13.17;76.00;93635.53;5006169;28;20237;-83
2024/02/22 13:32:30;;;;;;;2.53;1.92;;;;;;;13.18;75.86;93613.84;4997366;28;20311;-85
2024/02/22 13:34:57;;;;;;;2.60;1.73;;;;;;;13.12;74.67;93576.81;4996691;28;20199;-84
2024/02/22 13:37:23;;;;;;;2.90;1.67;;;;;;;13.17;74.84;93581.28;4996149;28;20212;-83
2024/02/22 13:39:50;;;;;;;2.63;1.90;;;;;;;13.20;75.50;93604.84;4997159;28;20207;-84
2024/02/22 13:42:16;;;;;;;2.20;2.00;;;;;;;13.21;76.05;93613.38;4997367;28;20261;-83
2024/02/22 13:44:44;;;;;;;2.53;1.80;;;;;;;13.22;76.02;93623.47;5005806;28;20210;-84
2024/02/22 13:47:10;;;;;;;2.10;1.90;;;;;;;13.22;77.12;93654.50;4999569;28;20211;-84
2024/02/22 13:49:38;;;;;;;2.25;1.88;;;;;;;13.23;77.56;93648.28;5016858;28;20708;-84
2024/02/22 13:52:07;;;;;;;2.17;1.93;;;;;;;13.25;78.61;93685.03;5017358;28;20223;-84
2024/02/22 13:54:34;;;;;;;2.67;1.80;;;;;;;13.26;79.33;93684.00;5016094;28;20253;-84
2024/02/22 13:57:01;;;;;;;1.80;1.70;;;;;;;13.20;80.79;93726.28;5015808;28;20257;-85
2024/02/22 13:59:27;;;;;;;1.80;1.70;;;;;;;13.17;80.57;93700.94;5013211;28;20274;-84
2024/02/22 14:01:56;;;;;;;1.90;1.70;;;;;;;13.18;80.98;93707.66;5005618;28;20250;-84
2024/02/22 14:04:22;;;;;;;2.63;1.80;;;;;;;13.13;81.76;93729.00;4997431;28;20306;-84
2024/02/22 14:06:50;;;;;;;2.07;1.60;;;;;;;13.18;80.87;93706.88;4996811;28;20211;-84
2024/02/22 14:09:17;;;;;;;2.20;2.00;;;;;;;13.22;80.69;93695.84;4968626;28;20275;-83
2024/02/22 14:11:44;;;;;;;2.30;1.83;;;;;;;13.26;82.26;93720.19;4982405;28;20220;-84
2024/02/22 14:14:11;;;;;;;4.40;1.90;;;;;;;13.33;81.71;93715.59;4996983;28;20249;-83
2024/02/22 14:16:39;;;;;;;2.00;1.80;;;;;;;13.36;81.87;93725.47;4989552;28;20644;-85
2024/02/22 14:19:07;;;;;;;1.87;1.77;;;;;;;13.38;81.80;93710.50;4990476;28;20211;-84
2024/02/22 14:21:33;;;;;;;2.28;2.08;;;;;;;13.33;84.14;93754.38;4996350;28;20254;-85
2024/02/22 14:24:01;;;;;;;2.17;1.90;;;;;;;13.34;84.75;93766.28;4995493;28;20238;-84
2024/02/22 14:26:28;;;;;;;2.67;1.80;;;;;;;13.31;85.21;93773.72;4997454;28;20234;-84
2024/02/22 14:28:55;;;;;;;2.23;2.03;;;;;;;13.27;85.31;93778.59;4995969;28;20295;-83
2024/02/22 14:31:24;;;;;;;2.50;2.20;;;;;;;13.25;86.89;93798.72;4997302;28;20219;-84
2024/02/22 14:33:50;;;;;;;2.63;2.10;;;;;;;13.14;89.71;93835.72;5003275;28;20273;-84
2024/02/22 14:36:18;;;;;;;3.13;2.17;;;;;;;13.02;88.59;93799.66;5002477;28;20207;-84
2024/02/22 14:38:45;;;;;;;2.20;2.00;;;;;;;12.90;90.05;93816.22;5003839;28;20198;-84
2024/02/22 14:41:13;;;;;;;3.90;2.20;;;;;;;12.86;90.73;93846.13;5003583;28;20211;-83
2024/02/22 14:43:39;;;;;;;2.80;2.40;;;;;;;12.88;90.48;93838.94;4999303;28;20219;-84
2024/02/22 14:46:05;;;;;;;2.07;1.90;;;;;;;12.92;90.28;93830.47;5002158;28;20250;-84
2024/02/22 14:48:32;;;;;;;2.50;2.30;;;;;;;12.89;91.31;93843.88;5004258;28;20263;-85
2024/02/22 14:50:59;;;;;;;3.47;2.47;;;;;;;12.89;91.40;93837.91;5003323;28;20198;-84
2024/02/22 14:53:25;;;;;;;3.22;2.28;;;;;;;12.90;90.87;93832.50;5000285;28;20298;-84
2024/02/22 14:55:51;;;;;;;2.60;2.40;;;;;;;12.91;90.98;93843.59;4998009;28;20245;-84